Aérodrome :
LOGIN :

S'inscrire | Disclaimer

   EN    FR    IT 

 










Légende :    VFR   VFR Marginal   IFR   IFR Intensif   IFR Très Intensif
Visi : 
Plafond : 
>= 8 km
>= 3000ft
5 à 8 km
1000 à 3000 ft
1500m à 5 km
500 à 1000 ft
800 à 1500m
200 à 500 ft
< 800m
< 200 ft
Symboles :   Orages  Brouillard  Fortes neiges  Fortes précipitations  Vent > 20 kt
SIGMETs :   Divers  Orages  Givrage  Turbulence  Onde Orograph.  Cendres Volcan.







- Altitude de l'aérodrome : 299 ft
- Code IATA : EDM
- Voir les cartes d'approche


LFRI - La Roche Sur Yon - Les Ajoncs

DERNIER METAR :
  • 171900Z AUTO 27004KT 9999 NSC 06/04 Q1026 NOSIG

METARs EXPIRÉS :
  • 171830Z AUTO 28004KT 9999 FEW030 07/04 Q1026 NOSIG
  • 171800Z AUTO 29005KT 9999 BKN027 OVC035 08/05 Q1025 NOSIG
  • 171730Z AUTO 31002KT 9999 BKN030 08/04 Q1025 NOSIG
  • 171700Z AUTO 34004KT CAVOK 09/04 Q1025 TEMPO 4500 -SHRA BKN020TCU
  • 171630Z AUTO 34006KT CAVOK 10/04 Q1025 TEMPO 4500 -SHRA BKN020TCU

TAF TAF LFRI
Valide du 17 à 18h jusqu'au 18 à 18h UTC


171700Z 1718/1818 VRB03KT 9999 BKN030
TEMPO 1806/1809 4500 -RA BKN014
TEMPO 1809/1818 3000 -DZ BKN005
Pas de NOTAMs connus pour ce terrain.



MET'MAP, la Météo Aéronautique d'un coup d'oeil ! - Copyright ORBIFLY Décembre 2007 - Disclaimer

ORBIFLY MET'MAP TEAM :

Programmation & Développement : Alexandra Zaïnal
Conception & Développement : Baudouin d'Aumeries
Co-Programmation & Développement : Marc-Olivier Méhu
Soutien technique & logistique : Manuel Goepfert

Contact : metmap@orbifly.com




SOURCES & CREDITS :

   NOAA